sensor_id;sensor_type;location;lat;lon;timestamp;temperature;humidity
50690;DHT22;71367;48.298;11.238;2024-01-15T07:51:21;-2.10;99.90
50690;DHT22;71367;48.298;11.238;2024-01-15T08:06:27;-1.60;99.90
50690;DHT22;71367;48.298;11.238;2024-01-15T08:21:31;-1.20;99.90
50690;DHT22;71367;48.298;11.238;2024-01-15T08:36:35;-1.00;99.90
50690;DHT22;71367;48.298;11.238;2024-01-15T08:51:39;-0.80;99.90
50690;DHT22;71367;48.298;11.238;2024-01-15T09:06:44;-0.80;99.90
50690;DHT22;71367;48.298;11.238;2024-01-15T09:37:06;-0.50;99.90
50690;DHT22;71367;48.298;11.238;2024-01-15T09:52:11;-0.30;99.90
50690;DHT22;71367;48.298;11.238;2024-01-15T10:07:16;-0.30;99.90
50690;DHT22;71367;48.298;11.238;2024-01-15T12:26:44;1.80;99.90
50690;DHT22;71367;48.298;11.238;2024-01-15T12:41:47;2.00;99.90
50690;DHT22;71367;48.298;11.238;2024-01-15T12:56:52;1.90;99.90
50690;DHT22;71367;48.298;11.238;2024-01-15T13:11:55;1.70;99.90
50690;DHT22;71367;48.298;11.238;2024-01-15T13:26:59;1.70;99.90
50690;DHT22;71367;48.298;11.238;2024-01-15T13:42:03;1.40;99.90
50690;DHT22;71367;48.298;11.238;2024-01-15T13:57:07;1.10;99.90
50690;DHT22;71367;48.298;11.238;2024-01-15T14:12:23;0.80;99.90
50690;DHT22;71367;48.298;11.238;2024-01-15T14:27:53;0.70;99.90
50690;DHT22;71367;48.298;11.238;2024-01-15T14:42:57;0.60;99.90
50690;DHT22;71367;48.298;11.238;2024-01-15T14:58:01;0.30;99.90
50690;DHT22;71367;48.298;11.238;2024-01-15T15:28:21;0.20;99.90
50690;DHT22;71367;48.298;11.238;2024-01-15T17:01:21;-1.10;99.90
50690;DHT22;71367;48.298;11.238;2024-01-15T17:16:25;-1.80;99.90
50690;DHT22;71367;48.298;11.238;2024-01-15T17:31:28;-2.10;99.90
50690;DHT22;71367;48.298;11.238;2024-01-15T17:46:32;-2.30;99.90
50690;DHT22;71367;48.298;11.238;2024-01-15T18:01:36;-2.10;99.90
50690;DHT22;71367;48.298;11.238;2024-01-15T18:16:44;-2.10;99.90
50690;DHT22;71367;48.298;11.238;2024-01-15T18:31:50;-2.10;99.90
50690;DHT22;71367;48.298;11.238;2024-01-15T18:46:54;-2.10;99.90
50690;DHT22;71367;48.298;11.238;2024-01-15T19:01:58;-2.40;99.90
50690;DHT22;71367;48.298;11.238;2024-01-15T19:17:02;-2.70;99.90
50690;DHT22;71367;48.298;11.238;2024-01-15T19:32:07;-2.80;99.90
50690;DHT22;71367;48.298;11.238;2024-01-15T19:47:10;-3.00;99.90
50690;DHT22;71367;48.298;11.238;2024-01-15T20:02:13;-3.20;99.90
50690;DHT22;71367;48.298;11.238;2024-01-15T20:17:17;-3.40;99.90
50690;DHT22;71367;48.298;11.238;2024-01-15T20:32:20;-3.50;99.90
50690;DHT22;71367;48.298;11.238;2024-01-15T20:47:23;-3.90;99.90
50690;DHT22;71367;48.298;11.238;2024-01-15T21:02:28;-3.90;99.90
50690;DHT22;71367;48.298;11.238;2024-01-15T21:17:31;-3.80;99.90
50690;DHT22;71367;48.298;11.238;2024-01-15T21:32:35;-3.80;99.90
50690;DHT22;71367;48.298;11.238;2024-01-15T21:47:40;-3.70;99.90
50690;DHT22;71367;48.298;11.238;2024-01-15T22:02:45;-3.30;99.90
50690;DHT22;71367;48.298;11.238;2024-01-15T22:17:49;-3.10;99.90
50690;DHT22;71367;48.298;11.238;2024-01-15T22:32:54;-3.00;99.90
50690;DHT22;71367;48.298;11.238;2024-01-15T22:47:57;-3.20;99.90
50690;DHT22;71367;48.298;11.238;2024-01-15T23:03:01;-3.20;99.90
50690;DHT22;71367;48.298;11.238;2024-01-15T23:18:05;-3.10;99.90
50690;DHT22;71367;48.298;11.238;2024-01-15T23:33:11;-3.10;99.90
50690;DHT22;71367;48.298;11.238;2024-01-15T23:48:16;-3.10;99.90
